sensor_id;sensor_type;location;lat;lon;timestamp;temperature;humidity
11142;DHT22;5625;50.122;19.864;2023-06-22T00:00:35;22.10;95.70
11142;DHT22;5625;50.122;19.864;2023-06-22T00:03:03;22.10;99.90
11142;DHT22;5625;50.122;19.864;2023-06-22T00:05:34;22.10;96.50
11142;DHT22;5625;50.122;19.864;2023-06-22T00:08:03;22.10;98.90
11142;DHT22;5625;50.122;19.864;2023-06-22T00:10:32;22.10;97.50
11142;DHT22;5625;50.122;19.864;2023-06-22T00:13:02;22.10;99.90
11142;DHT22;5625;50.122;19.864;2023-06-22T00:15:30;22.00;99.90
11142;DHT22;5625;50.122;19.864;2023-06-22T00:17:58;22.10;99.90
11142;DHT22;5625;50.122;19.864;2023-06-22T00:20:27;22.00;99.90
11142;DHT22;5625;50.122;19.864;2023-06-22T00:22:58;22.10;99.90
11142;DHT22;5625;50.122;19.864;2023-06-22T00:25:27;22.10;96.50
11142;DHT22;5625;50.122;19.864;2023-06-22T00:27:55;22.20;91.90
11142;DHT22;5625;50.122;19.864;2023-06-22T00:30:23;22.20;87.80
11142;DHT22;5625;50.122;19.864;2023-06-22T00:32:51;22.10;93.00
11142;DHT22;5625;50.122;19.864;2023-06-22T00:35:19;22.10;93.90
11142;DHT22;5625;50.122;19.864;2023-06-22T00:37:47;22.10;92.60
11142;DHT22;5625;50.122;19.864;2023-06-22T00:40:16;22.10;99.90
11142;DHT22;5625;50.122;19.864;2023-06-22T00:42:48;22.00;98.60
11142;DHT22;5625;50.122;19.864;2023-06-22T00:45:16;22.00;97.10
11142;DHT22;5625;50.122;19.864;2023-06-22T00:47:44;22.00;92.60
11142;DHT22;5625;50.122;19.864;2023-06-22T00:50:18;22.00;95.80
11142;DHT22;5625;50.122;19.864;2023-06-22T00:52:49;22.00;96.00
11142;DHT22;5625;50.122;19.864;2023-06-22T00:55:20;21.90;95.40
11142;DHT22;5625;50.122;19.864;2023-06-22T00:57:49;21.90;97.80
11142;DHT22;5625;50.122;19.864;2023-06-22T01:00:18;21.90;97.70
11142;DHT22;5625;50.122;19.864;2023-06-22T01:02:47;21.90;95.40
11142;DHT22;5625;50.122;19.864;2023-06-22T01:05:19;21.90;94.80
11142;DHT22;5625;50.122;19.864;2023-06-22T01:08:01;21.80;96.40
11142;DHT22;5625;50.122;19.864;2023-06-22T01:10:38;21.80;97.40
11142;DHT22;5625;50.122;19.864;2023-06-22T01:13:14;21.80;99.80
11142;DHT22;5625;50.122;19.864;2023-06-22T01:15:45;21.70;99.90
11142;DHT22;5625;50.122;19.864;2023-06-22T01:18:17;21.70;99.90
11142;DHT22;5625;50.122;19.864;2023-06-22T01:20:46;21.70;99.90
11142;DHT22;5625;50.122;19.864;2023-06-22T01:23:25;21.60;99.90
11142;DHT22;5625;50.122;19.864;2023-06-22T01:26:02;21.60;99.90
11142;DHT22;5625;50.122;19.864;2023-06-22T01:28:48;21.60;99.90
11142;DHT22;5625;50.122;19.864;2023-06-22T01:31:18;21.50;99.90
11142;DHT22;5625;50.122;19.864;2023-06-22T01:33:50;21.50;99.90
11142;DHT22;5625;50.122;19.864;2023-06-22T01:36:20;21.50;99.90
11142;DHT22;5625;50.122;19.864;2023-06-22T01:38:49;21.50;99.90
11142;DHT22;5625;50.122;19.864;2023-06-22T01:41:18;21.50;99.90
11142;DHT22;5625;50.122;19.864;2023-06-22T01:43:49;21.40;99.90
11142;DHT22;5625;50.122;19.864;2023-06-22T01:46:18;21.40;99.90
11142;DHT22;5625;50.122;19.864;2023-06-22T01:48:47;21.50;99.90
11142;DHT22;5625;50.122;19.864;2023-06-22T01:51:15;21.40;99.90
11142;DHT22;5625;50.122;19.864;2023-06-22T01:53:43;21.40;99.90
11142;DHT22;5625;50.122;19.864;2023-06-22T01:56:13;21.40;99.90
11142;DHT22;5625;50.122;19.864;2023-06-22T01:58:47;21.40;99.90
11142;DHT22;5625;50.122;19.864;2023-06-22T02:01:22;21.40;99.90
11142;DHT22;5625;50.122;19.864;2023-06-22T02:03:57;21.40;99.90
11142;DHT22;5625;50.122;19.864;2023-06-22T02:10:11;21.30;99.90
11142;DHT22;5625;50.122;19.864;2023-06-22T02:12:42;21.30;99.90
11142;DHT22;5625;50.122;19.864;2023-06-22T02:15:11;21.30;99.90
11142;DHT22;5625;50.122;19.864;2023-06-22T02:17:43;21.30;99.90
11142;DHT22;5625;50.122;19.864;2023-06-22T02:20:12;21.20;99.90
11142;DHT22;5625;50.122;19.864;2023-06-22T02:22:41;21.20;99.90
11142;DHT22;5625;50.122;19.864;2023-06-22T02:25:09;21.20;99.90
11142;DHT22;5625;50.122;19.864;2023-06-22T02:27:37;21.20;99.90
11142;DHT22;5625;50.122;19.864;2023-06-22T02:30:08;21.10;99.90
11142;DHT22;5625;50.122;19.864;2023-06-22T02:32:36;21.10;99.90
11142;DHT22;5625;50.122;19.864;2023-06-22T02:35:10;21.10;99.90
11142;DHT22;5625;50.122;19.864;2023-06-22T02:37:39;21.10;99.90
11142;DHT22;5625;50.122;19.864;2023-06-22T02:40:09;21.00;99.90
11142;DHT22;5625;50.122;19.864;2023-06-22T02:42:39;21.00;99.90
11142;DHT22;5625;50.122;19.864;2023-06-22T02:45:08;21.00;99.90
11142;DHT22;5625;50.122;19.864;2023-06-22T02:47:36;21.00;99.90
11142;DHT22;5625;50.122;19.864;2023-06-22T02:50:05;21.00;99.90
11142;DHT22;5625;50.122;19.864;2023-06-22T02:52:34;20.90;99.90
11142;DHT22;5625;50.122;19.864;2023-06-22T02:55:02;20.90;99.90
11142;DHT22;5625;50.122;19.864;2023-06-22T02:57:31;20.90;99.90
11142;DHT22;5625;50.122;19.864;2023-06-22T02:59:59;20.90;99.90
11142;DHT22;5625;50.122;19.864;2023-06-22T03:02:27;20.90;99.90
11142;DHT22;5625;50.122;19.864;2023-06-22T03:04:55;20.90;99.90
11142;DHT22;5625;50.122;19.864;2023-06-22T03:07:24;20.80;99.90
11142;DHT22;5625;50.122;19.864;2023-06-22T03:09:56;20.80;99.90
11142;DHT22;5625;50.122;19.864;2023-06-22T03:12:24;20.80;99.90
11142;DHT22;5625;50.122;19.864;2023-06-22T03:14:52;20.90;99.90
11142;DHT22;5625;50.122;19.864;2023-06-22T03:17:20;20.80;99.90
11142;DHT22;5625;50.122;19.864;2023-06-22T03:19:48;20.80;99.90
11142;DHT22;5625;50.122;19.864;2023-06-22T03:22:16;20.80;99.90
11142;DHT22;5625;50.122;19.864;2023-06-22T03:24:44;20.90;99.90
11142;DHT22;5625;50.122;19.864;2023-06-22T03:27:14;20.80;99.90
11142;DHT22;5625;50.122;19.864;2023-06-22T03:29:42;20.80;99.90
11142;DHT22;5625;50.122;19.864;2023-06-22T03:32:11;20.80;99.90
11142;DHT22;5625;50.122;19.864;2023-06-22T03:34:39;20.80;99.90
11142;DHT22;5625;50.122;19.864;2023-06-22T03:37:07;20.80;99.90
11142;DHT22;5625;50.122;19.864;2023-06-22T03:39:35;20.80;99.90
11142;DHT22;5625;50.122;19.864;2023-06-22T03:42:04;20.80;99.90
11142;DHT22;5625;50.122;19.864;2023-06-22T03:44:33;20.80;99.90
11142;DHT22;5625;50.122;19.864;2023-06-22T03:47:03;20.80;99.90
11142;DHT22;5625;50.122;19.864;2023-06-22T03:49:33;20.80;99.90
11142;DHT22;5625;50.122;19.864;2023-06-22T03:52:02;20.80;99.90
11142;DHT22;5625;50.122;19.864;2023-06-22T03:54:30;20.80;99.90
11142;DHT22;5625;50.122;19.864;2023-06-22T03:56:58;20.80;99.90
11142;DHT22;5625;50.122;19.864;2023-06-22T03:59:26;20.70;99.90
11142;DHT22;5625;50.122;19.864;2023-06-22T04:01:56;20.80;99.90
11142;DHT22;5625;50.122;19.864;2023-06-22T04:04:24;20.80;99.90
11142;DHT22;5625;50.122;19.864;2023-06-22T04:06:52;20.80;99.90
11142;DHT22;5625;50.122;19.864;2023-06-22T04:09:20;20.80;99.90
11142;DHT22;5625;50.122;19.864;2023-06-22T04:11:49;20.80;99.90
11142;DHT22;5625;50.122;19.864;2023-06-22T04:14:17;20.80;99.90
11142;DHT22;5625;50.122;19.864;2023-06-22T04:16:45;20.80;99.90
11142;DHT22;5625;50.122;19.864;2023-06-22T04:19:17;20.90;99.90
11142;DHT22;5625;50.122;19.864;2023-06-22T04:21:45;20.90;99.90
11142;DHT22;5625;50.122;19.864;2023-06-22T04:24:15;20.90;99.90
11142;DHT22;5625;50.122;19.864;2023-06-22T04:26:43;21.00;99.90
11142;DHT22;5625;50.122;19.864;2023-06-22T04:29:12;21.00;99.90
11142;DHT22;5625;50.122;19.864;2023-06-22T04:31:40;21.10;99.90
11142;DHT22;5625;50.122;19.864;2023-06-22T04:34:09;21.10;99.90
11142;DHT22;5625;50.122;19.864;2023-06-22T04:36:40;21.20;99.90
11142;DHT22;5625;50.122;19.864;2023-06-22T04:39:10;21.20;99.90
11142;DHT22;5625;50.122;19.864;2023-06-22T04:41:38;21.20;99.90
11142;DHT22;5625;50.122;19.864;2023-06-22T04:44:10;21.30;99.90
11142;DHT22;5625;50.122;19.864;2023-06-22T04:46:38;21.40;99.90
11142;DHT22;5625;50.122;19.864;2023-06-22T04:49:07;21.50;99.90
11142;DHT22;5625;50.122;19.864;2023-06-22T04:51:39;21.50;99.90
11142;DHT22;5625;50.122;19.864;2023-06-22T04:54:09;21.60;99.90
11142;DHT22;5625;50.122;19.864;2023-06-22T04:56:37;21.70;99.90
11142;DHT22;5625;50.122;19.864;2023-06-22T04:59:07;21.80;97.80
11142;DHT22;5625;50.122;19.864;2023-06-22T05:01:39;22.00;92.50
11142;DHT22;5625;50.122;19.864;2023-06-22T05:04:07;22.10;86.00
11142;DHT22;5625;50.122;19.864;2023-06-22T05:06:36;22.30;76.80
11142;DHT22;5625;50.122;19.864;2023-06-22T05:09:08;22.40;68.00
11142;DHT22;5625;50.122;19.864;2023-06-22T05:11:36;22.50;64.80
11142;DHT22;5625;50.122;19.864;2023-06-22T05:14:04;22.60;52.00
11142;DHT22;5625;50.122;19.864;2023-06-22T05:16:32;22.80;47.40
11142;DHT22;5625;50.122;19.864;2023-06-22T05:19:00;23.00;31.50
11142;DHT22;5625;50.122;19.864;2023-06-22T05:21:30;23.10;30.40
11142;DHT22;5625;50.122;19.864;2023-06-22T05:23:58;23.30;19.20
11142;DHT22;5625;50.122;19.864;2023-06-22T05:26:31;23.40;9.20
11142;DHT22;5625;50.122;19.864;2023-06-22T05:29:01;23.60;1.40
11142;DHT22;5625;50.122;19.864;2023-06-22T05:31:29;23.80;1.00
11142;DHT22;5625;50.122;19.864;2023-06-22T05:33:58;24.00;1.00
11142;DHT22;5625;50.122;19.864;2023-06-22T05:36:28;24.20;1.00
11142;DHT22;5625;50.122;19.864;2023-06-22T05:38:57;24.40;1.00
11142;DHT22;5625;50.122;19.864;2023-06-22T05:41:25;24.60;1.00
11142;DHT22;5625;50.122;19.864;2023-06-22T05:43:57;24.90;1.00
11142;DHT22;5625;50.122;19.864;2023-06-22T05:46:25;25.10;1.00
11142;DHT22;5625;50.122;19.864;2023-06-22T05:48:53;25.30;1.00
11142;DHT22;5625;50.122;19.864;2023-06-22T05:51:21;25.50;1.00
11142;DHT22;5625;50.122;19.864;2023-06-22T05:53:49;25.80;1.00
11142;DHT22;5625;50.122;19.864;2023-06-22T05:56:17;26.10;99.90
11142;DHT22;5625;50.122;19.864;2023-06-22T05:58:46;26.30;99.90
11142;DHT22;5625;50.122;19.864;2023-06-22T06:01:15;26.50;99.90
11142;DHT22;5625;50.122;19.864;2023-06-22T06:03:43;26.70;99.90
11142;DHT22;5625;50.122;19.864;2023-06-22T06:06:11;26.90;99.90
11142;DHT22;5625;50.122;19.864;2023-06-22T06:08:40;27.20;99.90
11142;DHT22;5625;50.122;19.864;2023-06-22T06:11:08;27.50;91.20
11142;DHT22;5625;50.122;19.864;2023-06-22T06:13:36;27.70;1.00
11142;DHT22;5625;50.122;19.864;2023-06-22T06:16:04;28.00;1.00
11142;DHT22;5625;50.122;19.864;2023-06-22T06:18:34;28.20;1.00
11142;DHT22;5625;50.122;19.864;2023-06-22T06:21:04;28.20;99.90
11142;DHT22;5625;50.122;19.864;2023-06-22T06:23:32;28.30;99.90
11142;DHT22;5625;50.122;19.864;2023-06-22T06:26:00;28.40;99.90
11142;DHT22;5625;50.122;19.864;2023-06-22T06:28:28;28.50;99.90
11142;DHT22;5625;50.122;19.864;2023-06-22T06:30:56;28.60;99.90
11142;DHT22;5625;50.122;19.864;2023-06-22T06:33:24;28.70;1.60
11142;DHT22;5625;50.122;19.864;2023-06-22T06:35:56;28.80;1.00
11142;DHT22;5625;50.122;19.864;2023-06-22T06:38:25;29.10;99.90
11142;DHT22;5625;50.122;19.864;2023-06-22T06:40:53;29.20;99.90
11142;DHT22;5625;50.122;19.864;2023-06-22T06:43:21;29.40;99.90
11142;DHT22;5625;50.122;19.864;2023-06-22T06:45:49;29.60;1.00
11142;DHT22;5625;50.122;19.864;2023-06-22T06:48:18;29.80;99.90
11142;DHT22;5625;50.122;19.864;2023-06-22T06:50:46;30.10;99.90
11142;DHT22;5625;50.122;19.864;2023-06-22T06:53:15;30.20;13.60
11142;DHT22;5625;50.122;19.864;2023-06-22T06:55:43;30.20;1.00
11142;DHT22;5625;50.122;19.864;2023-06-22T06:58:12;30.30;1.00
11142;DHT22;5625;50.122;19.864;2023-06-22T07:00:41;30.30;1.00
11142;DHT22;5625;50.122;19.864;2023-06-22T07:03:10;30.40;1.00
11142;DHT22;5625;50.122;19.864;2023-06-22T07:05:38;30.30;99.90
11142;DHT22;5625;50.122;19.864;2023-06-22T07:08:06;30.50;1.00
11142;DHT22;5625;50.122;19.864;2023-06-22T07:10:35;30.60;99.90
11142;DHT22;5625;50.122;19.864;2023-06-22T07:13:03;30.90;99.90
11142;DHT22;5625;50.122;19.864;2023-06-22T07:15:31;31.10;2.70
11142;DHT22;5625;50.122;19.864;2023-06-22T07:17:59;31.30;1.00
11142;DHT22;5625;50.122;19.864;2023-06-22T07:20:27;31.40;99.90
11142;DHT22;5625;50.122;19.864;2023-06-22T07:22:56;31.40;99.90
11142;DHT22;5625;50.122;19.864;2023-06-22T07:25:25;31.40;99.90
11142;DHT22;5625;50.122;19.864;2023-06-22T07:28:02;31.40;99.90
11142;DHT22;5625;50.122;19.864;2023-06-22T07:30:32;31.40;99.90
11142;DHT22;5625;50.122;19.864;2023-06-22T07:33:01;31.60;78.70
11142;DHT22;5625;50.122;19.864;2023-06-22T07:35:31;31.90;1.00
11142;DHT22;5625;50.122;19.864;2023-06-22T07:37:59;32.00;99.90
11142;DHT22;5625;50.122;19.864;2023-06-22T07:40:32;32.30;99.90
11142;DHT22;5625;50.122;19.864;2023-06-22T07:43:02;32.40;11.90
11142;DHT22;5625;50.122;19.864;2023-06-22T07:45:30;32.20;1.00
11142;DHT22;5625;50.122;19.864;2023-06-22T07:48:00;32.00;1.00
11142;DHT22;5625;50.122;19.864;2023-06-22T07:50:28;31.90;92.20
11142;DHT22;5625;50.122;19.864;2023-06-22T07:52:57;31.90;99.90
11142;DHT22;5625;50.122;19.864;2023-06-22T07:55:25;32.20;99.90
11142;DHT22;5625;50.122;19.864;2023-06-22T07:57:53;32.20;99.90
11142;DHT22;5625;50.122;19.864;2023-06-22T08:00:23;32.00;99.90
11142;DHT22;5625;50.122;19.864;2023-06-22T08:02:51;31.90;43.10
11142;DHT22;5625;50.122;19.864;2023-06-22T08:05:19;31.90;80.20
11142;DHT22;5625;50.122;19.864;2023-06-22T08:07:49;32.00;39.90
11142;DHT22;5625;50.122;19.864;2023-06-22T08:10:18;32.30;1.00
11142;DHT22;5625;50.122;19.864;2023-06-22T08:12:46;32.60;1.00
11142;DHT22;5625;50.122;19.864;2023-06-22T08:15:15;32.90;99.90
11142;DHT22;5625;50.122;19.864;2023-06-22T08:17:44;32.90;99.90
11142;DHT22;5625;50.122;19.864;2023-06-22T08:20:13;33.30;99.90
11142;DHT22;5625;50.122;19.864;2023-06-22T08:22:41;33.40;85.00
11142;DHT22;5625;50.122;19.864;2023-06-22T08:25:11;33.30;1.00
11142;DHT22;5625;50.122;19.864;2023-06-22T08:27:40;33.60;1.00
11142;DHT22;5625;50.122;19.864;2023-06-22T08:30:09;33.70;1.00
11142;DHT22;5625;50.122;19.864;2023-06-22T08:32:38;33.80;99.90
11142;DHT22;5625;50.122;19.864;2023-06-22T08:35:08;34.00;99.90
11142;DHT22;5625;50.122;19.864;2023-06-22T08:37:37;34.20;99.90
11142;DHT22;5625;50.122;19.864;2023-06-22T08:40:07;34.20;99.90
11142;DHT22;5625;50.122;19.864;2023-06-22T08:42:36;34.40;99.90
11142;DHT22;5625;50.122;19.864;2023-06-22T08:45:09;34.70;99.90
11142;DHT22;5625;50.122;19.864;2023-06-22T08:47:37;35.00;99.90
11142;DHT22;5625;50.122;19.864;2023-06-22T08:50:07;34.90;99.90
11142;DHT22;5625;50.122;19.864;2023-06-22T08:52:36;34.80;99.90
11142;DHT22;5625;50.122;19.864;2023-06-22T08:55:05;34.90;91.60
11142;DHT22;5625;50.122;19.864;2023-06-22T08:57:37;35.20;83.70
11142;DHT22;5625;50.122;19.864;2023-06-22T09:00:07;35.40;61.70
11142;DHT22;5625;50.122;19.864;2023-06-22T09:02:43;35.50;18.40
11142;DHT22;5625;50.122;19.864;2023-06-22T09:05:14;35.20;1.00
11142;DHT22;5625;50.122;19.864;2023-06-22T09:07:43;34.90;1.00
11142;DHT22;5625;50.122;19.864;2023-06-22T09:10:13;34.90;1.00
11142;DHT22;5625;50.122;19.864;2023-06-22T09:12:41;34.70;1.00
11142;DHT22;5625;50.122;19.864;2023-06-22T09:15:09;34.40;1.00
11142;DHT22;5625;50.122;19.864;2023-06-22T09:17:52;34.40;1.00
11142;DHT22;5625;50.122;19.864;2023-06-22T09:20:23;34.70;1.00
11142;DHT22;5625;50.122;19.864;2023-06-22T09:22:51;34.90;1.00
11142;DHT22;5625;50.122;19.864;2023-06-22T09:25:19;35.00;1.00
11142;DHT22;5625;50.122;19.864;2023-06-22T09:27:48;34.90;1.00
11142;DHT22;5625;50.122;19.864;2023-06-22T09:30:16;35.10;1.00
11142;DHT22;5625;50.122;19.864;2023-06-22T09:32:44;34.90;1.00
11142;DHT22;5625;50.122;19.864;2023-06-22T09:35:13;35.00;1.00
11142;DHT22;5625;50.122;19.864;2023-06-22T09:37:43;35.20;1.00
11142;DHT22;5625;50.122;19.864;2023-06-22T09:40:12;35.40;1.00
11142;DHT22;5625;50.122;19.864;2023-06-22T09:42:42;35.40;1.00
11142;DHT22;5625;50.122;19.864;2023-06-22T09:45:10;35.60;1.00
11142;DHT22;5625;50.122;19.864;2023-06-22T09:47:38;35.40;1.00
11142;DHT22;5625;50.122;19.864;2023-06-22T09:50:07;35.30;1.00
11142;DHT22;5625;50.122;19.864;2023-06-22T09:52:36;35.40;1.00
11142;DHT22;5625;50.122;19.864;2023-06-22T09:55:08;35.60;1.00
11142;DHT22;5625;50.122;19.864;2023-06-22T09:57:36;35.30;1.00
11142;DHT22;5625;50.122;19.864;2023-06-22T10:00:06;35.60;1.00
11142;DHT22;5625;50.122;19.864;2023-06-22T10:02:37;35.60;1.00
11142;DHT22;5625;50.122;19.864;2023-06-22T10:05:06;35.70;99.90
11142;DHT22;5625;50.122;19.864;2023-06-22T10:07:35;35.90;99.90
11142;DHT22;5625;50.122;19.864;2023-06-22T10:10:08;36.00;99.90
11142;DHT22;5625;50.122;19.864;2023-06-22T10:12:40;36.00;99.90
11142;DHT22;5625;50.122;19.864;2023-06-22T10:15:09;36.00;99.90
11142;DHT22;5625;50.122;19.864;2023-06-22T10:17:38;36.10;99.90
11142;DHT22;5625;50.122;19.864;2023-06-22T10:20:10;36.30;99.90
11142;DHT22;5625;50.122;19.864;2023-06-22T10:22:42;36.30;99.90
11142;DHT22;5625;50.122;19.864;2023-06-22T10:25:13;36.50;99.90
11142;DHT22;5625;50.122;19.864;2023-06-22T10:27:44;36.50;99.90
11142;DHT22;5625;50.122;19.864;2023-06-22T10:30:15;36.60;99.90
11142;DHT22;5625;50.122;19.864;2023-06-22T10:32:43;36.60;99.90
11142;DHT22;5625;50.122;19.864;2023-06-22T10:35:11;36.70;99.90
11142;DHT22;5625;50.122;19.864;2023-06-22T10:37:43;37.00;99.90
11142;DHT22;5625;50.122;19.864;2023-06-22T10:40:14;36.90;99.90
11142;DHT22;5625;50.122;19.864;2023-06-22T10:42:43;36.90;99.90
11142;DHT22;5625;50.122;19.864;2023-06-22T10:45:13;36.90;99.90
11142;DHT22;5625;50.122;19.864;2023-06-22T10:47:41;37.00;99.90
11142;DHT22;5625;50.122;19.864;2023-06-22T10:50:10;36.90;99.90
11142;DHT22;5625;50.122;19.864;2023-06-22T10:52:38;37.00;99.90
11142;DHT22;5625;50.122;19.864;2023-06-22T10:55:09;37.20;99.90
11142;DHT22;5625;50.122;19.864;2023-06-22T10:57:38;37.10;99.90
11142;DHT22;5625;50.122;19.864;2023-06-22T11:00:11;36.90;99.90
11142;DHT22;5625;50.122;19.864;2023-06-22T11:02:39;36.60;99.90
11142;DHT22;5625;50.122;19.864;2023-06-22T11:05:08;36.20;99.90
11142;DHT22;5625;50.122;19.864;2023-06-22T11:07:37;36.10;99.90
11142;DHT22;5625;50.122;19.864;2023-06-22T11:10:10;36.20;99.90
11142;DHT22;5625;50.122;19.864;2023-06-22T11:12:41;36.50;99.90
11142;DHT22;5625;50.122;19.864;2023-06-22T11:15:09;36.50;99.90
11142;DHT22;5625;50.122;19.864;2023-06-22T11:17:37;36.40;99.90
11142;DHT22;5625;50.122;19.864;2023-06-22T11:20:07;36.40;99.90
11142;DHT22;5625;50.122;19.864;2023-06-22T11:22:38;36.50;99.90
11142;DHT22;5625;50.122;19.864;2023-06-22T11:25:07;36.40;99.90
11142;DHT22;5625;50.122;19.864;2023-06-22T11:27:35;36.50;99.90
11142;DHT22;5625;50.122;19.864;2023-06-22T11:30:06;36.60;99.90
11142;DHT22;5625;50.122;19.864;2023-06-22T11:32:35;36.60;99.90
11142;DHT22;5625;50.122;19.864;2023-06-22T11:35:04;36.60;99.90
11142;DHT22;5625;50.122;19.864;2023-06-22T11:37:32;36.60;99.90
11142;DHT22;5625;50.122;19.864;2023-06-22T11:40:00;36.70;99.90
11142;DHT22;5625;50.122;19.864;2023-06-22T11:42:33;36.70;99.90
11142;DHT22;5625;50.122;19.864;2023-06-22T11:45:02;36.30;99.90
11142;DHT22;5625;50.122;19.864;2023-06-22T11:47:37;36.30;99.90
11142;DHT22;5625;50.122;19.864;2023-06-22T11:50:07;36.60;99.90
11142;DHT22;5625;50.122;19.864;2023-06-22T11:52:37;36.30;99.90
11142;DHT22;5625;50.122;19.864;2023-06-22T11:55:06;36.40;99.90
11142;DHT22;5625;50.122;19.864;2023-06-22T11:57:35;36.50;99.90
11142;DHT22;5625;50.122;19.864;2023-06-22T12:00:04;36.60;99.90
11142;DHT22;5625;50.122;19.864;2023-06-22T12:02:44;36.70;99.90
11142;DHT22;5625;50.122;19.864;2023-06-22T12:05:15;36.80;99.90
11142;DHT22;5625;50.122;19.864;2023-06-22T12:07:44;36.90;99.90
11142;DHT22;5625;50.122;19.864;2023-06-22T12:10:12;36.90;99.90
11142;DHT22;5625;50.122;19.864;2023-06-22T12:12:40;36.80;99.90
11142;DHT22;5625;50.122;19.864;2023-06-22T12:15:09;36.80;99.90
11142;DHT22;5625;50.122;19.864;2023-06-22T12:17:37;36.80;99.90
11142;DHT22;5625;50.122;19.864;2023-06-22T12:20:08;36.90;99.90
11142;DHT22;5625;50.122;19.864;2023-06-22T12:22:36;37.00;99.90
11142;DHT22;5625;50.122;19.864;2023-06-22T12:25:06;36.80;99.90
11142;DHT22;5625;50.122;19.864;2023-06-22T12:27:34;36.50;99.90
11142;DHT22;5625;50.122;19.864;2023-06-22T12:30:03;36.20;99.90
11142;DHT22;5625;50.122;19.864;2023-06-22T12:32:32;36.00;99.90
11142;DHT22;5625;50.122;19.864;2023-06-22T12:35:02;35.40;99.90
11142;DHT22;5625;50.122;19.864;2023-06-22T12:37:32;35.30;99.90
11142;DHT22;5625;50.122;19.864;2023-06-22T12:40:02;35.20;99.90
11142;DHT22;5625;50.122;19.864;2023-06-22T12:42:31;34.90;99.90
11142;DHT22;5625;50.122;19.864;2023-06-22T12:44:59;34.80;99.90
11142;DHT22;5625;50.122;19.864;2023-06-22T12:47:27;34.70;99.90
11142;DHT22;5625;50.122;19.864;2023-06-22T12:49:55;34.60;99.90
11142;DHT22;5625;50.122;19.864;2023-06-22T12:52:23;34.60;99.90
11142;DHT22;5625;50.122;19.864;2023-06-22T12:54:53;34.50;99.90
11142;DHT22;5625;50.122;19.864;2023-06-22T12:57:22;34.40;99.90
11142;DHT22;5625;50.122;19.864;2023-06-22T12:59:50;34.10;99.90
11142;DHT22;5625;50.122;19.864;2023-06-22T13:02:18;34.00;99.90
11142;DHT22;5625;50.122;19.864;2023-06-22T13:04:46;33.80;99.90
11142;DHT22;5625;50.122;19.864;2023-06-22T13:07:14;33.50;99.90
11142;DHT22;5625;50.122;19.864;2023-06-22T13:09:49;33.50;99.90
11142;DHT22;5625;50.122;19.864;2023-06-22T13:12:20;33.30;99.90
11142;DHT22;5625;50.122;19.864;2023-06-22T13:14:49;33.40;99.90
11142;DHT22;5625;50.122;19.864;2023-06-22T13:17:17;33.30;99.90
11142;DHT22;5625;50.122;19.864;2023-06-22T13:19:46;33.30;99.90
11142;DHT22;5625;50.122;19.864;2023-06-22T13:22:29;33.30;99.90
11142;DHT22;5625;50.122;19.864;2023-06-22T13:24:59;33.10;99.90
11142;DHT22;5625;50.122;19.864;2023-06-22T13:27:28;33.00;99.90
11142;DHT22;5625;50.122;19.864;2023-06-22T13:29:57;32.70;99.90
11142;DHT22;5625;50.122;19.864;2023-06-22T13:32:25;32.80;99.90
11142;DHT22;5625;50.122;19.864;2023-06-22T13:34:54;32.80;99.90
11142;DHT22;5625;50.122;19.864;2023-06-22T13:37:22;32.80;99.90
11142;DHT22;5625;50.122;19.864;2023-06-22T13:39:50;32.70;99.90
11142;DHT22;5625;50.122;19.864;2023-06-22T13:42:18;32.70;99.90
11142;DHT22;5625;50.122;19.864;2023-06-22T13:44:47;32.60;99.90
11142;DHT22;5625;50.122;19.864;2023-06-22T13:47:15;32.50;99.90
11142;DHT22;5625;50.122;19.864;2023-06-22T13:49:43;32.30;99.90
11142;DHT22;5625;50.122;19.864;2023-06-22T13:52:13;32.10;99.90
11142;DHT22;5625;50.122;19.864;2023-06-22T13:54:42;32.00;99.90
11142;DHT22;5625;50.122;19.864;2023-06-22T13:57:10;32.10;1.00
11142;DHT22;5625;50.122;19.864;2023-06-22T13:59:38;32.10;1.00
11142;DHT22;5625;50.122;19.864;2023-06-22T14:02:07;32.20;1.00
11142;DHT22;5625;50.122;19.864;2023-06-22T14:04:35;32.20;1.00
11142;DHT22;5625;50.122;19.864;2023-06-22T14:07:04;32.20;1.00
11142;DHT22;5625;50.122;19.864;2023-06-22T14:09:32;32.10;1.00
11142;DHT22;5625;50.122;19.864;2023-06-22T14:12:03;32.10;1.00
11142;DHT22;5625;50.122;19.864;2023-06-22T14:14:32;32.00;1.00
11142;DHT22;5625;50.122;19.864;2023-06-22T14:17:00;32.00;1.00
11142;DHT22;5625;50.122;19.864;2023-06-22T14:19:29;32.00;1.00
11142;DHT22;5625;50.122;19.864;2023-06-22T14:21:57;32.10;1.00
11142;DHT22;5625;50.122;19.864;2023-06-22T14:24:28;32.10;1.00
11142;DHT22;5625;50.122;19.864;2023-06-22T14:26:57;32.00;1.00
11142;DHT22;5625;50.122;19.864;2023-06-22T14:29:25;31.90;1.00
11142;DHT22;5625;50.122;19.864;2023-06-22T14:31:53;31.80;1.00
11142;DHT22;5625;50.122;19.864;2023-06-22T14:34:21;31.90;1.00
11142;DHT22;5625;50.122;19.864;2023-06-22T14:36:51;31.90;1.00
11142;DHT22;5625;50.122;19.864;2023-06-22T14:39:19;31.80;1.00
11142;DHT22;5625;50.122;19.864;2023-06-22T14:41:47;31.70;1.00
11142;DHT22;5625;50.122;19.864;2023-06-22T14:44:15;31.80;15.10
11142;DHT22;5625;50.122;19.864;2023-06-22T14:46:43;31.90;1.00
11142;DHT22;5625;50.122;19.864;2023-06-22T14:49:11;31.90;1.00
11142;DHT22;5625;50.122;19.864;2023-06-22T14:51:39;32.00;1.00
11142;DHT22;5625;50.122;19.864;2023-06-22T14:54:09;31.90;1.00
11142;DHT22;5625;50.122;19.864;2023-06-22T14:56:37;31.90;1.00
11142;DHT22;5625;50.122;19.864;2023-06-22T14:59:05;31.70;1.00
11142;DHT22;5625;50.122;19.864;2023-06-22T15:01:33;31.70;1.00
11142;DHT22;5625;50.122;19.864;2023-06-22T15:04:01;31.70;1.00
11142;DHT22;5625;50.122;19.864;2023-06-22T15:06:29;31.70;30.70
11142;DHT22;5625;50.122;19.864;2023-06-22T15:08:57;31.60;6.80
11142;DHT22;5625;50.122;19.864;2023-06-22T15:11:26;31.60;36.10
11142;DHT22;5625;50.122;19.864;2023-06-22T15:13:58;31.60;23.40
11142;DHT22;5625;50.122;19.864;2023-06-22T15:16:26;31.70;57.20
11142;DHT22;5625;50.122;19.864;2023-06-22T15:18:54;31.60;52.90
11142;DHT22;5625;50.122;19.864;2023-06-22T15:21:22;31.50;26.30
11142;DHT22;5625;50.122;19.864;2023-06-22T15:23:52;31.50;48.00
11142;DHT22;5625;50.122;19.864;2023-06-22T15:26:20;31.50;57.20
11142;DHT22;5625;50.122;19.864;2023-06-22T15:28:50;31.50;42.50
11142;DHT22;5625;50.122;19.864;2023-06-22T15:31:18;31.40;19.50
11142;DHT22;5625;50.122;19.864;2023-06-22T15:33:46;31.40;41.60
11142;DHT22;5625;50.122;19.864;2023-06-22T15:36:16;31.30;45.70
11142;DHT22;5625;50.122;19.864;2023-06-22T15:38:45;31.20;46.10
11142;DHT22;5625;50.122;19.864;2023-06-22T15:41:13;31.20;72.50
11142;DHT22;5625;50.122;19.864;2023-06-22T15:43:41;31.20;92.20
11142;DHT22;5625;50.122;19.864;2023-06-22T15:46:11;31.10;87.90
11142;DHT22;5625;50.122;19.864;2023-06-22T15:48:39;31.10;84.60
11142;DHT22;5625;50.122;19.864;2023-06-22T15:51:07;31.10;99.90